Time;durP1;ratioP1;P1;durP2;ratioP2;P2;SDS_P1;SDS_P2;PMS_P1;PMS_P2;Temp;Humidity;BMP_temperature;BMP_pressure;BME280_temperature;BME280_humidity;BME280_pressure;Samples;Min_cycle;Max_cycle;Signal;HPM_P1;HPM_P2
2023/01/13 00:02:07;;;;;;;;;;;28.00;92.10;;;;;;5053573;28;19909;-70
2023/01/13 00:04:34;;;;;;;;;;;27.90;92.60;;;;;;5053677;28;19916;-72
2023/01/13 00:07:00;;;;;;;;;;;27.90;92.50;;;;;;5053831;28;20353;-69
2023/01/13 00:09:27;;;;;;;;;;;27.90;92.10;;;;;;5053316;28;19919;-68
2023/01/13 00:11:55;;;;;;;;;;;27.60;92.80;;;;;;5053728;28;19913;-68
2023/01/13 00:14:21;;;;;;;;;;;27.30;93.10;;;;;;5053466;28;19916;-68
2023/01/13 00:16:48;;;;;;;;;;;27.30;92.70;;;;;;5053171;28;19917;-68
2023/01/13 00:19:14;;;;;;;;;;;27.30;93.20;;;;;;5053319;28;19908;-69
2023/01/13 00:21:42;;;;;;;;;;;27.30;92.70;;;;;;5053335;28;19909;-69
2023/01/13 00:24:10;;;;;;;;;;;27.30;92.70;;;;;;5053252;28;19912;-69
2023/01/13 00:26:36;;;;;;;;;;;27.30;93.10;;;;;;5053405;28;20023;-68
2023/01/13 00:29:03;;;;;;;;;;;27.30;93.50;;;;;;5053510;28;19962;-68
2023/01/13 00:31:30;;;;;;;;;;;27.30;93.60;;;;;;5053226;28;19916;-68
2023/01/13 00:33:57;;;;;;;;;;;27.30;93.60;;;;;;5053253;28;19908;-69
2023/01/13 00:36:24;;;;;;;;;;;27.40;94.10;;;;;;5052657;28;20022;-69
2023/01/13 00:38:50;;;;;;;;;;;27.70;93.40;;;;;;5053143;28;19924;-70
2023/01/13 00:41:18;;;;;;;;;;;27.70;92.90;;;;;;5053191;28;19963;-69
2023/01/13 00:43:45;;;;;;;;;;;27.80;93.00;;;;;;5053078;28;20011;-69
2023/01/13 00:46:13;;;;;;;;;;;27.50;92.80;;;;;;5052740;28;19988;-71
2023/01/13 00:48:40;;;;;;;;;;;27.50;93.40;;;;;;5052900;28;20282;-69
2023/01/13 00:51:08;;;;;;;;;;;27.80;93.40;;;;;;5053098;28;19916;-72
2023/01/13 00:53:36;;;;;;;;;;;28.00;93.20;;;;;;5053159;28;19908;-70
2023/01/13 00:56:04;;;;;;;;;;;27.80;92.80;;;;;;5052524;28;20431;-69
2023/01/13 00:58:31;;;;;;;;;;;28.00;93.00;;;;;;5052815;28;19912;-70
2023/01/13 01:01:05;;;;;;;;;;;28.20;92.40;;;;;;5052919;28;19908;-71
2023/01/13 01:03:32;;;;;;;;;;;28.10;93.20;;;;;;5052750;28;19916;-70
2023/01/13 01:06:03;;;;;;;;;;;27.80;93.10;;;;;;5052369;28;20006;-70
2023/01/13 01:08:30;;;;;;;;;;;28.00;93.40;;;;;;5052568;28;20288;-69
2023/01/13 01:11:04;;;;;;;;;;;28.30;92.90;;;;;;5053070;28;20284;-70
2023/01/13 01:13:31;;;;;;;;;;;28.50;92.70;;;;;;5052763;28;19919;-70
2023/01/13 01:15:58;;;;;;;;;;;28.50;92.30;;;;;;5052214;28;20361;-69
2023/01/13 01:18:25;;;;;;;;;;;28.50;92.20;;;;;;5052536;28;19912;-70
2023/01/13 01:20:51;;;;;;;;;;;28.30;92.40;;;;;;5054065;28;19909;-70
2023/01/13 01:23:18;;;;;;;;;;;28.30;92.90;;;;;;5056794;28;19909;-71
2023/01/13 01:25:45;;;;;;;;;;;28.40;92.60;;;;;;5056550;28;20368;-74
2023/01/13 01:28:11;;;;;;;;;;;28.50;92.10;;;;;;5056606;28;19908;-73
2023/01/13 01:30:38;;;;;;;;;;;28.80;92.20;;;;;;5056687;28;19909;-69
2023/01/13 01:33:05;;;;;;;;;;;29.20;91.80;;;;;;5056827;28;19909;-74
2023/01/13 01:35:31;;;;;;;;;;;29.30;91.30;;;;;;5056438;28;19913;-70
2023/01/13 01:37:58;;;;;;;;;;;29.60;91.30;;;;;;5056328;28;19921;-71
2023/01/13 01:40:26;;;;;;;;;;;29.70;91.60;;;;;;5056440;28;19909;-69
2023/01/13 01:45:37;;;;;;;;;;;29.70;90.90;;;;;;5056408;28;19915;-69
2023/01/13 01:48:03;;;;;;;;;;;29.30;90.30;;;;;;5056152;28;20372;-70
2023/01/13 01:50:30;;;;;;;;;;;29.10;91.20;;;;;;5056180;28;19908;-69
2023/01/13 01:53:01;;;;;;;;;;;28.90;91.60;;;;;;5056023;28;19909;-70
2023/01/13 01:55:30;;;;;;;;;;;28.70;91.30;;;;;;5055911;28;19917;-69
2023/01/13 01:57:59;;;;;;;;;;;28.70;91.50;;;;;;5056039;28;19917;-67
2023/01/13 02:00:26;;;;;;;;;;;28.80;91.80;;;;;;5055942;28;19908;-73
2023/01/13 02:02:53;;;;;;;;;;;29.00;91.80;;;;;;5056052;28;19909;-72
2023/01/13 02:05:20;;;;;;;;;;;29.20;91.60;;;;;;5055871;28;19953;-69
2023/01/13 02:07:47;;;;;;;;;;;29.20;91.30;;;;;;5054699;28;19909;-70
2023/01/13 02:10:15;;;;;;;;;;;29.30;91.50;;;;;;5055851;28;19920;-72
2023/01/13 02:12:42;;;;;;;;;;;29.60;91.20;;;;;;5055929;28;19916;-69
2023/01/13 02:15:09;;;;;;;;;;;29.70;91.10;;;;;;5055888;28;19908;-69
2023/01/13 02:17:59;;;;;;;;;;;30.20;90.50;;;;;;5055477;28;19924;-69
2023/01/13 02:20:44;;;;;;;;;;;30.50;90.10;;;;;;5055655;28;20373;-68
2023/01/13 02:26:32;;;;;;;;;;;30.90;88.90;;;;;;5055431;28;19955;-69
2023/01/13 02:31:55;;;;;;;;;;;30.90;90.30;;;;;;5055204;28;19916;-68
2023/01/13 02:34:35;;;;;;;;;;;31.10;89.60;;;;;;5055321;28;19970;-73
2023/01/13 02:37:28;;;;;;;;;;;31.10;88.80;;;;;;5055161;28;20007;-73
2023/01/13 02:40:00;;;;;;;;;;;31.50;88.80;;;;;;5055123;28;19982;-73
2023/01/13 02:45:19;;;;;;;;;;;31.40;87.50;;;;;;5055187;28;19932;-70
2023/01/13 02:47:48;;;;;;;;;;;30.90;89.30;;;;;;5055187;28;19909;-71
2023/01/13 02:50:17;;;;;;;;;;;31.20;88.80;;;;;;5055322;28;19909;-69
2023/01/13 02:52:44;;;;;;;;;;;31.00;89.80;;;;;;5055141;28;19909;-73
2023/01/13 02:55:22;;;;;;;;;;;30.30;90.80;;;;;;5054992;28;20389;-73
2023/01/13 02:57:50;;;;;;;;;;;30.40;90.50;;;;;;5054926;28;19924;-69
2023/01/13 03:00:17;;;;;;;;;;;30.40;90.80;;;;;;5055712;28;19923;-69
2023/01/13 03:02:44;;;;;;;;;;;30.50;90.80;;;;;;5059364;28;19924;-70
2023/01/13 03:05:14;;;;;;;;;;;30.50;90.80;;;;;;5054743;28;20229;-69
2023/01/13 03:07:44;;;;;;;;;;;30.70;90.60;;;;;;5054745;28;19920;-70
2023/01/13 03:10:33;;;;;;;;;;;30.50;90.40;;;;;;5053498;28;19959;-69
2023/01/13 03:13:15;;;;;;;;;;;30.50;90.60;;;;;;5054527;28;19912;-69
2023/01/13 03:15:47;;;;;;;;;;;30.40;90.20;;;;;;5057865;28;19920;-69
2023/01/13 03:18:17;;;;;;;;;;;30.30;90.60;;;;;;5054438;28;19970;-72
2023/01/13 03:20:48;;;;;;;;;;;30.60;90.70;;;;;;5054605;28;19979;-69
2023/01/13 03:23:27;;;;;;;;;;;30.60;90.00;;;;;;5056755;28;19919;-69
2023/01/13 03:26:00;;;;;;;;;;;30.50;90.30;;;;;;5069889;28;19919;-70
2023/01/13 03:28:28;;;;;;;;;;;30.50;90.60;;;;;;5072564;28;19978;-69
2023/01/13 03:31:02;;;;;;;;;;;30.80;90.20;;;;;;5072760;28;19936;-73
2023/01/13 03:33:33;;;;;;;;;;;30.70;90.20;;;;;;5067451;28;20280;-69
2023/01/13 03:36:03;;;;;;;;;;;30.40;90.40;;;;;;5068540;28;19974;-69
2023/01/13 03:39:01;;;;;;;;;;;30.40;90.30;;;;;;5083617;28;20288;-69
2023/01/13 03:41:31;;;;;;;;;;;30.10;90.30;;;;;;5063613;28;20353;-70
2023/01/13 03:44:33;;;;;;;;;;;30.30;90.60;;;;;;5053271;28;19908;-69
2023/01/13 03:47:11;;;;;;;;;;;30.40;90.30;;;;;;5071766;28;19908;-70
2023/01/13 03:49:42;;;;;;;;;;;30.60;90.30;;;;;;5065894;28;19999;-70
2023/01/13 03:52:11;;;;;;;;;;;30.20;90.50;;;;;;5064909;28;19909;-71
2023/01/13 03:54:50;;;;;;;;;;;30.60;90.30;;;;;;5053709;28;19916;-71
2023/01/13 03:57:19;;;;;;;;;;;30.70;89.70;;;;;;5053818;28;19917;-70
2023/01/13 03:59:48;;;;;;;;;;;31.10;89.70;;;;;;5053808;28;20011;-71
2023/01/13 04:02:33;;;;;;;;;;;31.40;90.10;;;;;;5053528;28;19916;-70
2023/01/13 04:05:04;;;;;;;;;;;32.00;87.50;;;;;;5053876;28;19919;-71
2023/01/13 04:07:31;;;;;;;;;;;32.40;86.20;;;;;;5066462;28;19912;-70
2023/01/13 04:09:59;;;;;;;;;;;32.40;85.40;;;;;;5073718;28;19909;-74
2023/01/13 04:12:59;;;;;;;;;;;32.40;84.70;;;;;;5073446;28;20331;-75
2023/01/13 04:15:15;;;;;;;;;;;32.40;85.60;;;;;;5073466;28;20042;-75
2023/01/13 04:17:42;;;;;;;;;;;31.50;87.10;;;;;;5073438;28;20459;-70
2023/01/13 04:20:09;;;;;;;;;;;30.60;88.70;;;;;;5073417;28;19909;-71
2023/01/13 04:22:35;;;;;;;;;;;30.40;89.70;;;;;;5073280;28;19915;-73
2023/01/13 04:25:02;;;;;;;;;;;30.40;90.00;;;;;;5073087;28;20003;-70
2023/01/13 04:27:28;;;;;;;;;;;30.30;90.00;;;;;;5073191;28;20338;-71
2023/01/13 04:29:55;;;;;;;;;;;30.10;90.50;;;;;;5073316;28;19915;-73
2023/01/13 04:32:22;;;;;;;;;;;30.20;90.30;;;;;;5073504;28;20288;-74
2023/01/13 04:34:48;;;;;;;;;;;29.70;91.10;;;;;;5073237;28;19916;-71
2023/01/13 04:37:15;;;;;;;;;;;29.20;91.60;;;;;;5072946;28;19925;-70
2023/01/13 04:39:41;;;;;;;;;;;29.50;91.40;;;;;;5073170;28;19915;-74
2023/01/13 04:42:08;;;;;;;;;;;29.60;91.30;;;;;;5073322;28;19996;-70
2023/01/13 04:44:35;;;;;;;;;;;29.80;91.10;;;;;;5073212;28;19961;-73
2023/01/13 04:47:02;;;;;;;;;;;30.10;90.90;;;;;;5072818;28;19965;-71
2023/01/13 04:49:28;;;;;;;;;;;30.30;90.40;;;;;;5073086;28;19909;-72
2023/01/13 04:51:55;;;;;;;;;;;30.20;90.60;;;;;;5072408;28;20357;-72
2023/01/13 04:54:22;;;;;;;;;;;29.90;90.80;;;;;;5073058;28;20361;-68
2023/01/13 04:56:48;;;;;;;;;;;29.80;91.50;;;;;;5072123;28;19924;-70
2023/01/13 04:59:15;;;;;;;;;;;30.00;90.90;;;;;;5072975;28;19916;-68
2023/01/13 05:01:41;;;;;;;;;;;30.30;90.90;;;;;;5072817;28;19943;-70
2023/01/13 05:04:08;;;;;;;;;;;30.80;89.80;;;;;;5072820;28;19909;-69
2023/01/13 05:06:35;;;;;;;;;;;30.80;89.90;;;;;;5072887;28;19912;-70
2023/01/13 05:09:01;;;;;;;;;;;31.30;89.00;;;;;;5073023;28;19913;-73
2023/01/13 05:17:00;;;;;;;;;;;34.60;83.10;;;;;;5072587;28;20383;-69
2023/01/13 05:19:28;;;;;;;;;;;34.90;80.90;;;;;;5072935;28;19912;-69
2023/01/13 05:27:24;;;;;;;;;;;32.40;86.40;;;;;;5073685;28;20005;-71
2023/01/13 05:29:51;;;;;;;;;;;32.90;86.50;;;;;;5073028;28;20013;-69
2023/01/13 05:32:18;;;;;;;;;;;33.10;85.80;;;;;;5072460;28;19936;-73
2023/01/13 05:34:44;;;;;;;;;;;32.70;86.50;;;;;;5072651;28;19963;-69
2023/01/13 05:37:12;;;;;;;;;;;31.50;89.00;;;;;;5072434;28;20331;-68
2023/01/13 05:45:11;;;;;;;;;;;30.80;90.20;;;;;;5072666;28;19931;-71
2023/01/13 05:47:38;;;;;;;;;;;30.20;91.00;;;;;;5072411;28;19908;-72
2023/01/13 05:50:05;;;;;;;;;;;30.30;91.30;;;;;;5071253;28;19919;-68
2023/01/13 05:52:31;;;;;;;;;;;29.80;91.60;;;;;;5072293;28;19909;-71
2023/01/13 05:54:58;;;;;;;;;;;29.30;92.20;;;;;;5072494;28;19932;-73
2023/01/13 05:57:24;;;;;;;;;;;29.10;92.30;;;;;;5072257;28;20369;-72
2023/01/13 05:59:51;;;;;;;;;;;28.70;92.60;;;;;;5072457;28;20003;-69
2023/01/13 06:02:18;;;;;;;;;;;28.70;92.90;;;;;;5072037;28;19908;-68
2023/01/13 06:04:44;;;;;;;;;;;28.70;92.90;;;;;;5071897;28;19980;-73
2023/01/13 06:07:11;;;;;;;;;;;28.60;93.50;;;;;;5072582;28;20345;-72
2023/01/13 06:09:38;;;;;;;;;;;28.50;93.50;;;;;;5076056;28;19962;-70
2023/01/13 06:12:04;;;;;;;;;;;28.20;93.70;;;;;;5076298;28;19909;-73
2023/01/13 06:14:40;;;;;;;;;;;27.90;94.40;;;;;;5076013;28;19908;-73
2023/01/13 06:17:11;;;;;;;;;;;28.00;94.40;;;;;;5076021;28;19916;-72
2023/01/13 06:19:38;;;;;;;;;;;27.90;94.30;;;;;;5075488;28;20432;-70
2023/01/13 06:22:13;;;;;;;;;;;27.80;94.30;;;;;;5075670;28;20396;-69
2023/01/13 06:24:40;;;;;;;;;;;27.60;94.80;;;;;;5075801;28;20617;-70
2023/01/13 06:27:07;;;;;;;;;;;27.50;94.80;;;;;;5075526;28;20381;-72
2023/01/13 06:29:34;;;;;;;;;;;27.50;95.00;;;;;;5074273;28;19915;-73
2023/01/13 06:32:06;;;;;;;;;;;27.50;95.20;;;;;;5074341;28;19908;-69
2023/01/13 06:34:34;;;;;;;;;;;27.60;95.20;;;;;;5075569;28;19909;-69
2023/01/13 06:37:02;;;;;;;;;;;27.50;94.80;;;;;;5075343;28;20015;-74
2023/01/13 06:39:30;;;;;;;;;;;27.50;95.00;;;;;;5075597;28;19931;-69
2023/01/13 06:44:42;;;;;;;;;;;27.20;95.40;;;;;;5075531;28;20012;-69
2023/01/13 06:47:08;;;;;;;;;;;27.30;95.50;;;;;;5075048;28;19939;-74
2023/01/13 06:49:35;;;;;;;;;;;27.60;95.00;;;;;;5075391;28;20368;-75
2023/01/13 06:52:02;;;;;;;;;;;27.70;95.00;;;;;;5075618;28;20007;-69
2023/01/13 06:54:28;;;;;;;;;;;27.80;94.40;;;;;;5075438;28;19908;-70
2023/01/13 06:56:55;;;;;;;;;;;27.60;94.50;;;;;;5074739;28;20293;-69
2023/01/13 06:59:22;;;;;;;;;;;27.50;95.10;;;;;;5075042;28;20031;-69
2023/01/13 07:01:48;;;;;;;;;;;27.50;95.50;;;;;;5075038;28;19908;-71
2023/01/13 07:04:15;;;;;;;;;;;27.60;95.30;;;;;;5074926;28;19912;-68
2023/01/13 07:06:41;;;;;;;;;;;27.40;95.50;;;;;;5074622;28;19997;-68
2023/01/13 07:09:09;;;;;;;;;;;27.40;95.70;;;;;;5074683;28;19931;-69
2023/01/13 07:11:35;;;;;;;;;;;27.50;95.40;;;;;;5074683;28;19909;-68
2023/01/13 07:16:46;;;;;;;;;;;27.10;95.90;;;;;;5074354;28;19924;-68
2023/01/13 07:19:14;;;;;;;;;;;26.80;96.60;;;;;;5073585;28;19918;-67
2023/01/13 07:21:41;;;;;;;;;;;26.60;96.90;;;;;;5074506;28;19948;-68
2023/01/13 07:24:07;;;;;;;;;;;26.50;96.90;;;;;;5074472;28;19908;-68
2023/01/13 07:26:34;;;;;;;;;;;26.50;97.10;;;;;;5074403;28;19909;-68
2023/01/13 07:29:01;;;;;;;;;;;26.40;96.80;;;;;;5073013;28;19915;-69
2023/01/13 07:31:27;;;;;;;;;;;26.20;97.20;;;;;;5074254;28;19993;-75
2023/01/13 07:33:54;;;;;;;;;;;26.10;97.50;;;;;;5073987;28;20020;-71
2023/01/13 07:36:21;;;;;;;;;;;26.00;97.60;;;;;;5073791;28;19917;-70
2023/01/13 07:38:47;;;;;;;;;;;25.90;97.90;;;;;;5074062;28;19908;-69
2023/01/13 07:44:01;;;;;;;;;;;25.80;98.10;;;;;;5074304;28;20273;-73
2023/01/13 07:46:28;;;;;;;;;;;25.70;98.30;;;;;;5073882;28;19908;-71
2023/01/13 07:48:55;;;;;;;;;;;25.60;98.20;;;;;;5074403;28;20528;-69
2023/01/13 07:51:22;;;;;;;;;;;25.40;98.50;;;;;;5073901;28;19908;-68
2023/01/13 07:53:48;;;;;;;;;;;25.50;98.50;;;;;;5073857;28;19913;-69
2023/01/13 07:56:15;;;;;;;;;;;25.50;98.50;;;;;;5073713;28;19927;-69
2023/01/13 07:58:43;;;;;;;;;;;25.30;98.70;;;;;;5073678;28;20010;-69
2023/01/13 08:01:11;;;;;;;;;;;25.40;98.80;;;;;;5072246;28;19914;-68
2023/01/13 08:03:38;;;;;;;;;;;25.50;98.60;;;;;;5073783;28;20288;-73
2023/01/13 08:06:05;;;;;;;;;;;25.30;98.70;;;;;;5073853;28;20414;-72
2023/01/13 08:08:32;;;;;;;;;;;25.30;99.00;;;;;;5073463;28;19954;-72
2023/01/13 08:10:59;;;;;;;;;;;25.10;98.50;;;;;;5073680;28;19913;-69
2023/01/13 08:13:26;;;;;;;;;;;25.10;98.90;;;;;;5073533;28;19915;-68
2023/01/13 08:15:58;;;;;;;;;;;25.10;99.10;;;;;;5073160;28;19916;-69
2023/01/13 08:18:24;;;;;;;;;;;25.10;99.10;;;;;;5072445;28;19967;-69
2023/01/13 08:20:51;;;;;;;;;;;25.10;99.20;;;;;;5073275;28;19915;-71
2023/01/13 08:23:19;;;;;;;;;;;25.00;99.60;;;;;;5071935;28;19908;-69
2023/01/13 08:25:45;;;;;;;;;;;24.90;99.40;;;;;;5073116;28;19908;-72
2023/01/13 08:28:13;;;;;;;;;;;24.90;99.40;;;;;;5073223;28;19954;-68
2023/01/13 08:30:39;;;;;;;;;;;24.90;99.50;;;;;;5073022;28;20007;-68
2023/01/13 08:33:07;;;;;;;;;;;24.90;99.70;;;;;;5073328;28;20321;-68
2023/01/13 08:35:37;;;;;;;;;;;25.00;99.80;;;;;;5072992;28;19908;-68
2023/01/13 08:38:04;;;;;;;;;;;24.90;99.90;;;;;;5075974;28;19920;-74
2023/01/13 08:40:31;;;;;;;;;;;24.90;99.90;;;;;;5081234;28;19909;-69
2023/01/13 08:42:58;;;;;;;;;;;24.80;99.90;;;;;;5082015;28;19916;-73
2023/01/13 08:45:25;;;;;;;;;;;24.70;99.90;;;;;;5076057;28;19954;-70
2023/01/13 08:47:52;;;;;;;;;;;24.60;99.90;;;;;;5073799;28;19909;-67
2023/01/13 08:50:18;;;;;;;;;;;24.60;99.90;;;;;;5073400;28;19909;-72
2023/01/13 08:52:45;;;;;;;;;;;24.60;99.90;;;;;;5073107;28;19920;-68
2023/01/13 08:55:11;;;;;;;;;;;24.60;99.90;;;;;;5072947;28;19915;-69
2023/01/13 08:57:38;;;;;;;;;;;24.50;99.90;;;;;;5072907;28;20011;-68
2023/01/13 09:00:06;;;;;;;;;;;24.50;99.90;;;;;;5072998;28;20370;-69
2023/01/13 09:02:32;;;;;;;;;;;24.50;99.90;;;;;;5073023;28;19913;-70
2023/01/13 09:05:02;;;;;;;;;;;24.40;99.90;;;;;;5073085;28;19909;-73
2023/01/13 09:07:29;;;;;;;;;;;24.40;99.90;;;;;;5072867;28;19930;-68
2023/01/13 09:09:56;;;;;;;;;;;24.30;99.90;;;;;;5072757;28;19915;-69
2023/01/13 09:15:08;;;;;;;;;;;24.30;99.90;;;;;;5073310;28;20007;-71
2023/01/13 09:17:34;;;;;;;;;;;24.30;99.90;;;;;;5072525;28;20015;-72
2023/01/13 09:20:01;;;;;;;;;;;24.30;99.90;;;;;;5072899;28;19995;-68
2023/01/13 09:22:29;;;;;;;;;;;24.30;99.90;;;;;;5072579;28;20154;-68
2023/01/13 09:24:55;;;;;;;;;;;24.30;99.90;;;;;;5071904;28;20008;-70
2023/01/13 09:27:22;;;;;;;;;;;24.20;99.90;;;;;;5072838;28;19908;-71
2023/01/13 09:29:49;;;;;;;;;;;24.20;99.90;;;;;;5072647;28;19916;-74
2023/01/13 09:32:16;;;;;;;;;;;24.10;99.90;;;;;;5072739;28;19916;-73
2023/01/13 09:35:00;;;;;;;;;;;24.20;99.90;;;;;;5072823;28;19908;-73
2023/01/13 09:37:28;;;;;;;;;;;24.20;99.90;;;;;;5072469;28;19924;-73
2023/01/13 09:39:56;;;;;;;;;;;24.10;99.90;;;;;;5071088;28;19916;-69
2023/01/13 09:45:21;;;;;;;;;;;24.10;99.90;;;;;;5076558;28;19966;-67
2023/01/13 09:48:00;;;;;;;;;;;24.00;99.90;;;;;;5076338;28;19916;-68
2023/01/13 09:50:45;;;;;;;;;;;24.00;99.90;;;;;;5076487;28;19913;-70
2023/01/13 09:53:17;;;;;;;;;;;24.00;99.90;;;;;;5076423;28;20441;-75
2023/01/13 09:55:44;;;;;;;;;;;23.90;99.90;;;;;;5076413;28;20377;-73
2023/01/13 09:58:13;;;;;;;;;;;23.90;99.90;;;;;;5076259;28;20266;-69
2023/01/13 10:00:59;;;;;;;;;;;23.90;99.90;;;;;;5075076;28;19908;-70
2023/01/13 10:03:27;;;;;;;;;;;23.80;99.90;;;;;;5075095;28;19908;-73
2023/01/13 10:06:13;;;;;;;;;;;23.80;99.90;;;;;;5076045;28;19908;-70
2023/01/13 10:08:41;;;;;;;;;;;23.70;99.90;;;;;;5076264;28;20429;-68
2023/01/13 10:14:01;;;;;;;;;;;23.70;99.90;;;;;;5076302;28;20375;-71
2023/01/13 10:16:41;;;;;;;;;;;23.70;99.90;;;;;;5076408;28;19947;-72
2023/01/13 10:19:18;;;;;;;;;;;23.70;99.90;;;;;;5074823;28;20353;-72
2023/01/13 10:21:57;;;;;;;;;;;23.70;99.90;;;;;;5075813;28;19969;-69
2023/01/13 10:24:42;;;;;;;;;;;23.60;99.90;;;;;;5075536;28;20373;-73
2023/01/13 10:27:15;;;;;;;;;;;23.60;99.90;;;;;;5075615;28;19948;-69
2023/01/13 10:29:42;;;;;;;;;;;23.60;99.90;;;;;;5076192;28;20011;-69
2023/01/13 10:32:09;;;;;;;;;;;23.60;99.90;;;;;;5075716;28;20349;-75
2023/01/13 10:34:56;;;;;;;;;;;23.60;99.90;;;;;;5075516;28;19908;-67
2023/01/13 10:37:25;;;;;;;;;;;23.60;99.90;;;;;;5075088;28;20546;-74
2023/01/13 10:39:54;;;;;;;;;;;23.60;99.90;;;;;;5075335;28;19955;-69
2023/01/13 10:42:22;;;;;;;;;;;23.60;99.90;;;;;;5075239;28;19909;-70
2023/01/13 10:44:50;;;;;;;;;;;23.60;99.90;;;;;;5075343;28;20266;-69
2023/01/13 10:47:35;;;;;;;;;;;23.50;99.90;;;;;;5075032;28;19908;-69
2023/01/13 10:50:08;;;;;;;;;;;23.50;99.90;;;;;;5075214;28;19952;-70
2023/01/13 10:52:41;;;;;;;;;;;23.50;99.90;;;;;;5075000;28;20423;-68
2023/01/13 10:55:25;;;;;;;;;;;23.50;99.90;;;;;;5075042;28;19913;-68
2023/01/13 10:57:52;;;;;;;;;;;23.50;99.90;;;;;;5074837;28;19962;-68
2023/01/13 11:00:27;;;;;;;;;;;23.50;99.90;;;;;;5075272;28;19916;-68
2023/01/13 11:03:12;;;;;;;;;;;23.40;99.90;;;;;;5075159;28;20336;-69
2023/01/13 11:05:39;;;;;;;;;;;23.50;99.90;;;;;;5074696;28;19909;-69
2023/01/13 11:08:14;;;;;;;;;;;23.40;99.90;;;;;;5074889;28;20284;-69
2023/01/13 11:10:44;;;;;;;;;;;23.40;99.90;;;;;;5074764;28;19909;-68
2023/01/13 11:13:15;;;;;;;;;;;23.40;99.90;;;;;;5074721;28;19908;-68
2023/01/13 11:15:47;;;;;;;;;;;23.40;99.90;;;;;;5074555;28;19909;-70
2023/01/13 11:18:26;;;;;;;;;;;23.30;99.90;;;;;;5074375;28;19920;-69
2023/01/13 11:20:54;;;;;;;;;;;23.40;99.90;;;;;;5074435;28;20357;-71
2023/01/13 11:23:26;;;;;;;;;;;23.40;99.90;;;;;;5074612;28;19909;-71
2023/01/13 11:26:04;;;;;;;;;;;23.30;99.90;;;;;;5074100;28;19916;-69
2023/01/13 11:28:34;;;;;;;;;;;23.20;99.90;;;;;;5074099;28;20370;-69
2023/01/13 11:31:06;;;;;;;;;;;23.30;99.90;;;;;;5074431;28;19908;-68
2023/01/13 11:33:38;;;;;;;;;;;23.30;99.90;;;;;;5074202;28;19908;-71
2023/01/13 11:36:11;;;;;;;;;;;23.20;99.90;;;;;;5073869;28;19920;-69
2023/01/13 11:38:37;;;;;;;;;;;23.30;99.90;;;;;;5073756;28;19927;-69
2023/01/13 11:41:12;;;;;;;;;;;23.30;99.90;;;;;;5074218;28;19909;-69
2023/01/13 11:43:42;;;;;;;;;;;23.20;99.90;;;;;;5074303;28;19952;-69
2023/01/13 11:46:09;;;;;;;;;;;23.30;99.90;;;;;;5073743;28;20006;-68
2023/01/13 11:48:37;;;;;;;;;;;23.20;99.90;;;;;;5073743;28;20000;-68
2023/01/13 11:51:06;;;;;;;;;;;23.20;99.90;;;;;;5073953;28;19908;-75
2023/01/13 11:53:40;;;;;;;;;;;23.20;99.90;;;;;;5073799;28;20003;-69
2023/01/13 11:56:06;;;;;;;;;;;23.20;99.90;;;;;;5073671;28;19908;-69
2023/01/13 11:58:53;;;;;;;;;;;23.20;99.90;;;;;;5073575;28;19996;-76
2023/01/13 12:01:33;;;;;;;;;;;23.20;99.90;;;;;;5073813;28;19909;-70
2023/01/13 12:04:06;;;;;;;;;;;23.20;99.90;;;;;;5073365;28;19966;-69
2023/01/13 12:06:38;;;;;;;;;;;23.20;99.90;;;;;;5073479;28;20258;-69
2023/01/13 12:09:10;;;;;;;;;;;23.20;99.90;;;;;;5073394;28;20296;-69
2023/01/13 12:14:48;;;;;;;;;;;23.20;99.90;;;;;;5073268;28;19915;-72
2023/01/13 12:17:25;;;;;;;;;;;23.10;99.90;;;;;;5073233;28;20019;-72
2023/01/13 12:19:52;;;;;;;;;;;23.10;99.90;;;;;;5056916;28;19943;-73
2023/01/13 12:22:21;;;;;;;;;;;23.10;99.90;;;;;;5053552;28;20332;-69
2023/01/13 12:24:51;;;;;;;;;;;23.10;99.90;;;;;;5053575;28;19909;-70
2023/01/13 12:27:22;;;;;;;;;;;23.10;99.90;;;;;;5053534;28;19947;-69
2023/01/13 12:29:50;;;;;;;;;;;23.00;99.90;;;;;;5053597;28;19909;-74
2023/01/13 12:32:22;;;;;;;;;;;23.00;99.90;;;;;;5053872;28;19913;-69
2023/01/13 12:34:52;;;;;;;;;;;23.00;99.90;;;;;;5053479;28;20320;-69
2023/01/13 12:37:27;;;;;;;;;;;23.00;99.90;;;;;;5053142;28;20020;-70
2023/01/13 12:40:26;;;;;;;;;;;23.00;99.90;;;;;;5053373;28;19909;-69
2023/01/13 12:45:48;;;;;;;;;;;23.00;99.90;;;;;;5052930;28;20388;-70
2023/01/13 12:48:32;;;;;;;;;;;23.00;99.90;;;;;;5053076;28;19916;-71
2023/01/13 12:51:04;;;;;;;;;;;23.00;99.90;;;;;;5053014;28;20357;-70
2023/01/13 12:53:32;;;;;;;;;;;23.00;99.90;;;;;;5052923;28;19915;-70
2023/01/13 12:56:17;;;;;;;;;;;23.00;99.90;;;;;;5052829;28;20348;-69
2023/01/13 12:58:44;;;;;;;;;;;23.00;99.90;;;;;;5052993;28;19916;-71
2023/01/13 13:01:13;;;;;;;;;;;23.00;99.90;;;;;;5052920;28;19909;-73
2023/01/13 13:03:40;;;;;;;;;;;23.00;99.90;;;;;;5052840;28;19912;-70
2023/01/13 13:06:13;;;;;;;;;;;23.00;99.90;;;;;;5052736;28;20323;-69
2023/01/13 13:08:58;;;;;;;;;;;23.00;99.90;;;;;;5053103;28;19963;-74
2023/01/13 13:14:38;;;;;;;;;;;23.00;99.90;;;;;;5052885;28;20277;-70
2023/01/13 13:17:25;;;;;;;;;;;23.00;99.90;;;;;;5051638;28;19970;-71
2023/01/13 13:19:52;;;;;;;;;;;23.00;99.90;;;;;;5051419;28;19948;-69
2023/01/13 13:22:21;;;;;;;;;;;23.00;99.90;;;;;;5052719;28;19963;-72
2023/01/13 13:24:48;;;;;;;;;;;23.00;99.90;;;;;;5052657;28;19908;-70
2023/01/13 13:27:30;;;;;;;;;;;23.00;99.90;;;;;;5052566;28;19986;-68
2023/01/13 13:29:56;;;;;;;;;;;23.00;99.90;;;;;;5052771;28;20381;-70
2023/01/13 13:32:23;;;;;;;;;;;23.00;99.90;;;;;;5052705;28;19909;-70
2023/01/13 13:35:05;;;;;;;;;;;23.10;99.90;;;;;;5052494;28;20396;-72
2023/01/13 13:49:07;;;;;;;;;;;23.00;99.90;;;;;;5052426;28;19916;-70
2023/01/13 13:51:40;;;;;;;;;;;23.00;99.90;;;;;;5052512;28;19916;-69
2023/01/13 13:54:14;;;;;;;;;;;23.00;99.90;;;;;;5052343;28;19909;-74
2023/01/13 13:56:43;;;;;;;;;;;22.90;99.90;;;;;;5052501;28;20357;-74
2023/01/13 13:59:16;;;;;;;;;;;22.90;99.90;;;;;;5052406;28;19916;-73
2023/01/13 14:01:44;;;;;;;;;;;22.90;99.90;;;;;;5052459;28;19938;-74
2023/01/13 14:04:28;;;;;;;;;;;22.90;99.90;;;;;;5052261;28;19915;-70
2023/01/13 14:06:56;;;;;;;;;;;22.90;99.90;;;;;;5051967;28;19913;-72
2023/01/13 14:09:24;;;;;;;;;;;22.90;99.90;;;;;;5052329;28;20003;-69
2023/01/13 14:11:58;;;;;;;;;;;22.90;99.90;;;;;;5057670;28;19953;-69
2023/01/13 14:14:25;;;;;;;;;;;22.90;99.90;;;;;;5063743;28;19915;-71
2023/01/13 14:16:53;;;;;;;;;;;22.90;99.90;;;;;;5063268;28;19956;-72
2023/01/13 14:19:29;;;;;;;;;;;22.90;99.90;;;;;;5063850;28;19909;-69
2023/01/13 14:21:56;;;;;;;;;;;22.90;99.90;;;;;;5067169;28;19913;-70
2023/01/13 14:24:23;;;;;;;;;;;22.80;99.90;;;;;;5056249;28;19912;-74
2023/01/13 14:26:52;;;;;;;;;;;22.80;99.90;;;;;;5052360;28;19916;-68
2023/01/13 14:29:21;;;;;;;;;;;22.80;99.90;;;;;;5055488;28;19912;-69
2023/01/13 14:31:52;;;;;;;;;;;22.80;99.90;;;;;;5056157;28;19909;-73
2023/01/13 14:34:19;;;;;;;;;;;22.70;99.90;;;;;;5055654;28;19955;-69
2023/01/13 14:36:50;;;;;;;;;;;22.70;99.90;;;;;;5055310;28;19922;-74
2023/01/13 14:39:16;;;;;;;;;;;22.70;99.90;;;;;;5055476;28;19913;-70
2023/01/13 14:41:46;;;;;;;;;;;22.70;99.90;;;;;;5055496;28;19919;-70
2023/01/13 14:44:27;;;;;;;;;;;22.60;99.90;;;;;;5055340;28;20297;-69
2023/01/13 14:46:55;;;;;;;;;;;22.60;99.90;;;;;;5055285;28;20356;-73
2023/01/13 14:49:30;;;;;;;;;;;22.70;99.90;;;;;;5055417;28;19909;-69
2023/01/13 14:52:09;;;;;;;;;;;22.60;99.90;;;;;;5055383;28;20285;-74
2023/01/13 14:54:41;;;;;;;;;;;22.60;99.90;;;;;;5054985;28;19913;-69
2023/01/13 14:57:15;;;;;;;;;;;22.60;99.90;;;;;;5054937;28;19927;-69
2023/01/13 14:59:50;;;;;;;;;;;22.60;99.90;;;;;;5055254;28;19915;-69
2023/01/13 15:02:29;;;;;;;;;;;22.60;99.90;;;;;;5053925;28;20507;-69
2023/01/13 15:04:58;;;;;;;;;;;22.60;99.90;;;;;;5054787;28;20297;-73
2023/01/13 15:07:26;;;;;;;;;;;22.60;99.90;;;;;;5054934;28;19996;-69
2023/01/13 15:09:53;;;;;;;;;;;22.60;99.90;;;;;;5054779;28;19912;-74
2023/01/13 15:12:23;;;;;;;;;;;22.60;99.90;;;;;;5054658;28;19916;-70
2023/01/13 15:14:50;;;;;;;;;;;22.60;99.90;;;;;;5054718;28;20318;-74
2023/01/13 15:17:17;;;;;;;;;;;22.70;99.90;;;;;;5055365;28;19963;-71
2023/01/13 15:19:44;;;;;;;;;;;22.60;99.90;;;;;;5055521;28;19909;-74
2023/01/13 15:22:10;;;;;;;;;;;22.60;99.90;;;;;;5055362;28;20000;-70
2023/01/13 15:24:37;;;;;;;;;;;22.70;99.90;;;;;;5053329;28;20357;-71
2023/01/13 15:27:10;;;;;;;;;;;22.70;99.90;;;;;;5054649;28;19954;-68
2023/01/13 15:29:37;;;;;;;;;;;22.70;99.90;;;;;;5054891;28;19916;-72
2023/01/13 15:32:03;;;;;;;;;;;22.70;99.90;;;;;;5054668;28;20354;-70
2023/01/13 15:34:30;;;;;;;;;;;22.70;99.90;;;;;;5054431;28;19913;-73
2023/01/13 15:36:57;;;;;;;;;;;22.60;99.90;;;;;;5054044;28;19920;-73
2023/01/13 15:39:23;;;;;;;;;;;22.60;99.90;;;;;;5053701;28;19909;-72